createdAt,value
2023-03-06T00:01:17.028Z,79.70
2023-03-06T00:06:18.699Z,79.51
2023-03-06T00:11:20.634Z,79.93
2023-03-06T00:16:22.143Z,80.18
2023-03-06T00:21:23.602Z,79.71
2023-03-06T00:26:25.025Z,80.30
2023-03-06T00:31:26.480Z,79.65
2023-03-06T00:36:28.009Z,79.66
2023-03-06T00:41:29.655Z,79.63
2023-03-06T00:46:32.592Z,80.36
2023-03-06T00:51:34.209Z,79.71
2023-03-06T00:56:36.052Z,79.40
2023-03-06T01:01:37.547Z,79.52
2023-03-06T01:06:39.169Z,79.48
2023-03-06T01:11:41.042Z,79.25
2023-03-06T01:16:42.523Z,79.67
2023-03-06T01:21:44.207Z,80.18
2023-03-06T01:26:45.684Z,79.36
2023-03-06T01:31:47.510Z,79.50
2023-03-06T01:36:49.070Z,80.06
2023-03-06T01:41:50.526Z,80.04
2023-03-06T01:46:52.018Z,79.45
2023-03-06T01:52:03.552Z,79.16
2023-03-06T01:57:37.732Z,79.31
2023-03-06T02:02:42.553Z,79.48
2023-03-06T02:07:45.939Z,79.52
2023-03-06T02:12:50.226Z,80.35
2023-03-06T02:17:52.671Z,79.67
2023-03-06T02:23:06.895Z,80.00
2023-03-06T02:28:12.186Z,80.13
2023-03-06T02:33:20.553Z,79.47
2023-03-06T02:38:27.062Z,79.46
2023-03-06T02:43:33.131Z,80.27
2023-03-06T02:48:34.803Z,79.69
2023-03-06T02:53:36.398Z,79.64
2023-03-06T02:58:37.978Z,80.12
2023-03-06T03:03:39.615Z,80.12
2023-03-06T03:08:41.247Z,79.93
2023-03-06T03:13:44.263Z,79.79
2023-03-06T03:18:54.005Z,79.42
2023-03-06T03:23:57.544Z,79.98
2023-03-06T03:29:05.007Z,79.61
2023-03-06T03:34:06.614Z,79.99
2023-03-06T03:39:12.114Z,80.25
2023-03-06T03:44:15.203Z,80.25
2023-03-06T03:49:17.417Z,79.15
2023-03-06T03:54:19.302Z,79.45
2023-03-06T03:59:23.302Z,79.98
2023-03-06T04:04:48.043Z,79.60
2023-03-06T04:09:49.735Z,79.89
2023-03-06T04:14:52.494Z,79.54
2023-03-06T04:19:54.338Z,79.65
2023-03-06T04:24:56.596Z,79.97
2023-03-06T04:29:58.240Z,79.91
2023-03-06T04:34:59.973Z,79.81
2023-03-06T04:40:07.115Z,79.29
2023-03-06T04:45:08.788Z,79.78
2023-03-06T04:50:11.095Z,79.14
2023-03-06T04:55:14.041Z,79.07
2023-03-06T05:00:19.224Z,79.17
2023-03-06T05:05:20.660Z,78.90
2023-03-06T05:10:22.726Z,79.18
2023-03-06T05:15:24.148Z,78.26
2023-03-06T05:20:25.975Z,77.98
2023-03-06T05:25:27.415Z,78.42
2023-03-06T05:30:28.856Z,78.27
2023-03-06T05:35:30.367Z,78.28
2023-03-06T05:40:31.844Z,78.91
2023-03-06T05:45:33.376Z,78.55
2023-03-06T05:50:34.845Z,78.35
2023-03-06T05:55:36.293Z,78.40
2023-03-06T06:00:37.729Z,78.60
2023-03-06T06:05:39.773Z,78.22
2023-03-06T06:10:41.377Z,78.43
2023-03-06T06:15:42.812Z,78.19
2023-03-06T06:20:44.275Z,78.13
2023-03-06T06:25:45.724Z,78.78
2023-03-06T06:30:47.192Z,78.30
2023-03-06T06:35:48.676Z,77.58
2023-03-06T06:41:26.752Z,78.45
2023-03-06T06:46:47.094Z,77.79
2023-03-06T06:51:33.833Z,77.63
2023-03-06T06:56:35.322Z,78.30
2023-03-06T07:01:36.825Z,77.39
2023-03-06T07:06:38.286Z,77.44
2023-03-06T07:11:40.379Z,77.32
2023-03-06T07:16:41.806Z,77.60
2023-03-06T07:21:43.242Z,75.94
2023-03-06T07:26:48.420Z,76.26
2023-03-06T07:31:49.884Z,76.74
2023-03-06T07:36:51.331Z,76.98
2023-03-06T07:41:53.472Z,75.98
2023-03-06T07:46:55.021Z,75.51
2023-03-06T07:51:56.476Z,74.88
2023-03-06T07:56:58.147Z,75.14
2023-03-06T08:02:04.401Z,74.37
2023-03-06T08:07:16.740Z,73.02
2023-03-06T08:12:18.196Z,73.79
2023-03-06T08:18:06.082Z,73.30
2023-03-06T08:23:46.629Z,72.94
2023-03-06T08:28:48.431Z,73.29
2023-03-06T08:33:49.903Z,73.42
2023-03-06T08:38:51.599Z,73.24
2023-03-06T08:43:53.195Z,73.82
2023-03-06T08:48:54.736Z,73.39
2023-03-06T08:55:02.965Z,73.32
2023-03-06T09:00:36.929Z,74.58
2023-03-06T09:05:40.449Z,74.94
2023-03-06T09:10:46.981Z,75.17
2023-03-06T09:15:48.559Z,74.59
2023-03-06T09:20:50.015Z,74.29
2023-03-06T09:25:55.675Z,74.03
2023-03-06T09:30:57.381Z,73.88
2023-03-06T09:35:59.039Z,73.09
2023-03-06T09:41:06.400Z,72.58
2023-03-06T09:47:04.850Z,71.94
2023-03-06T09:52:36.256Z,71.62
2023-03-06T09:58:31.521Z,71.71
2023-03-06T10:04:14.798Z,73.80
2023-03-06T10:09:53.375Z,75.67
2023-03-06T10:16:19.582Z,74.51
2023-03-06T10:21:55.882Z,74.94
2023-03-06T10:27:32.126Z,76.08
2023-03-06T10:33:16.684Z,75.07
2023-03-06T10:38:37.392Z,76.57
2023-03-06T10:55:29.137Z,81.20
2023-03-06T11:41:50.761Z,82.79
2023-03-06T12:19:16.912Z,79.33
2023-03-06T12:24:43.158Z,78.03
2023-03-06T12:30:09.594Z,78.12
2023-03-06T12:35:29.700Z,77.80
2023-03-06T12:41:19.401Z,78.11
2023-03-06T12:46:23.258Z,76.49
2023-03-06T12:51:25.024Z,75.61
2023-03-06T12:56:28.174Z,74.31
2023-03-06T13:01:41.053Z,75.88
2023-03-06T13:06:59.406Z,75.38
2023-03-06T13:12:15.761Z,75.88
2023-03-06T13:17:22.980Z,75.32
2023-03-06T13:22:27.860Z,75.31
2023-03-06T13:27:52.152Z,74.88
2023-03-06T13:32:54.658Z,74.56
2023-03-06T13:37:57.317Z,74.16
2023-03-06T13:43:07.507Z,73.76
2023-03-06T13:48:47.333Z,73.77
2023-03-06T13:54:11.312Z,75.33
2023-03-06T13:59:44.786Z,72.36
2023-03-06T14:04:58.573Z,72.92
2023-03-06T14:10:08.558Z,73.21
2023-03-06T14:15:28.218Z,73.43
2023-03-06T14:20:42.197Z,72.96
2023-03-06T14:25:45.850Z,71.53
2023-03-06T14:30:52.069Z,73.04
2023-03-06T14:35:56.672Z,71.95
2023-03-06T14:40:58.434Z,72.38
2023-03-06T14:46:02.500Z,71.84
2023-03-06T14:51:04.241Z,72.97
2023-03-06T14:56:07.572Z,72.74
2023-03-06T15:01:10.784Z,71.04
2023-03-06T15:06:27.290Z,73.48
2023-03-06T15:11:52.196Z,71.01
2023-03-06T15:16:53.685Z,72.29
2023-03-06T15:21:55.162Z,73.56
2023-03-06T15:27:01.503Z,78.12
2023-03-06T15:32:29.448Z,80.64
2023-03-06T15:37:39.182Z,80.77
2023-03-06T15:42:42.465Z,80.45
2023-03-06T15:47:44.759Z,82.98
2023-03-06T15:52:47.000Z,84.17
2023-03-06T15:58:00.673Z,83.68
2023-03-06T16:03:03.306Z,85.55
2023-03-06T16:08:05.924Z,85.06
2023-03-06T16:13:12.805Z,85.14
2023-03-06T16:18:14.350Z,85.32
2023-03-06T16:23:16.392Z,85.23
2023-03-06T16:28:17.754Z,84.45
2023-03-06T16:33:19.228Z,84.41
2023-03-06T16:38:20.733Z,84.01
2023-03-06T16:43:22.167Z,84.57
2023-03-06T16:48:23.596Z,83.60
2023-03-06T16:53:25.029Z,83.73
2023-03-06T16:58:26.471Z,83.83
2023-03-06T17:03:27.924Z,83.59
2023-03-06T17:08:29.805Z,83.83
2023-03-06T17:13:31.226Z,84.01
2023-03-06T17:18:32.990Z,83.00
2023-03-06T17:23:34.448Z,83.18
2023-03-06T17:28:37.345Z,83.40
2023-03-06T17:33:38.811Z,83.36
2023-03-06T17:38:41.077Z,83.04
2023-03-06T17:43:42.540Z,82.77
2023-03-06T17:48:44.430Z,83.27
2023-03-06T17:53:45.901Z,82.93
2023-03-06T18:05:45.225Z,82.42
2023-03-06T18:10:47.625Z,82.30
2023-03-06T18:15:49.064Z,83.20
2023-03-06T18:20:50.586Z,83.42
2023-03-06T18:25:52.618Z,83.15
2023-03-06T18:30:54.139Z,83.79
2023-03-06T18:35:55.495Z,83.14
2023-03-06T18:40:56.970Z,83.87
2023-03-06T18:45:58.432Z,83.72
2023-03-06T18:51:08.092Z,84.06
2023-03-06T18:56:16.744Z,83.81
2023-03-06T19:01:18.596Z,83.83
2023-03-06T19:06:20.260Z,84.53
2023-03-06T19:11:21.680Z,84.17
2023-03-06T19:16:26.236Z,84.10
2023-03-06T19:21:27.976Z,83.63
2023-03-06T19:26:29.486Z,83.89
2023-03-06T19:31:30.920Z,83.96
2023-03-06T19:36:34.136Z,83.96
2023-03-06T19:41:38.019Z,83.26
2023-03-06T19:46:40.597Z,83.15
2023-03-06T19:51:42.295Z,83.20
2023-03-06T19:56:43.748Z,83.50
2023-03-06T20:01:45.234Z,83.58
2023-03-06T20:06:49.829Z,83.36
2023-03-06T20:12:53.807Z,83.85
2023-03-06T20:17:56.806Z,84.27
2023-03-06T20:23:02.554Z,84.14
2023-03-06T20:28:04.547Z,84.06
2023-03-06T20:33:06.005Z,84.16
2023-03-06T20:38:07.436Z,84.06
2023-03-06T20:43:08.862Z,83.86
2023-03-06T20:48:10.320Z,84.75
2023-03-06T20:53:11.787Z,84.02
2023-03-06T20:58:13.212Z,84.26
2023-03-06T21:03:14.901Z,84.83
2023-03-06T21:08:17.079Z,84.72
2023-03-06T21:13:19.116Z,84.59
2023-03-06T21:18:20.694Z,85.03
2023-03-06T21:23:22.148Z,84.90
2023-03-06T21:28:23.608Z,84.67
2023-03-06T21:33:28.606Z,85.16
2023-03-06T21:38:30.322Z,84.29
2023-03-06T21:43:31.758Z,84.65
2023-03-06T21:48:33.771Z,84.85
2023-03-06T21:53:35.870Z,84.64
2023-03-06T21:58:37.652Z,84.76
2023-03-06T22:03:39.197Z,84.41
2023-03-06T22:08:41.703Z,84.74
2023-03-06T22:13:43.740Z,85.37
2023-03-06T22:18:47.019Z,84.90
2023-03-06T22:23:52.763Z,84.91
2023-03-06T22:28:54.497Z,84.75
2023-03-06T22:33:58.407Z,84.82
2023-03-06T22:39:01.832Z,84.48
2023-03-06T22:44:03.520Z,85.30
2023-03-06T22:49:05.067Z,84.57
2023-03-06T22:54:07.759Z,84.65
2023-03-06T22:59:09.202Z,85.04
2023-03-06T23:04:11.295Z,84.46
2023-03-06T23:09:16.003Z,84.42
2023-03-06T23:14:35.916Z,84.42
2023-03-06T23:19:55.720Z,83.80
2023-03-06T23:25:15.744Z,83.70
2023-03-06T23:30:17.358Z,84.06
2023-03-06T23:35:19.040Z,84.11
2023-03-06T23:40:20.525Z,84.12
2023-03-06T23:45:22.100Z,83.94
2023-03-06T23:50:24.556Z,84.38
2023-03-06T23:55:25.994Z,84.07
